sensor_id;sensor_type;location;lat;lon;timestamp;temperature;humidity
75719;DHT22;64340;48.534;-3.036;2023-07-13T00:01:58;20.00;66.00
75719;DHT22;64340;48.534;-3.036;2023-07-13T00:04:24;20.00;66.00
75719;DHT22;64340;48.534;-3.036;2023-07-13T00:06:53;20.00;66.00
75719;DHT22;64340;48.534;-3.036;2023-07-13T00:09:19;20.00;66.00
75719;DHT22;64340;48.534;-3.036;2023-07-13T00:11:45;20.00;66.00
75719;DHT22;64340;48.534;-3.036;2023-07-13T00:14:12;20.00;66.00
75719;DHT22;64340;48.534;-3.036;2023-07-13T00:16:38;20.00;66.10
75719;DHT22;64340;48.534;-3.036;2023-07-13T00:19:05;20.00;66.10
75719;DHT22;64340;48.534;-3.036;2023-07-13T00:21:31;20.00;66.10
75719;DHT22;64340;48.534;-3.036;2023-07-13T00:23:57;20.00;66.10
75719;DHT22;64340;48.534;-3.036;2023-07-13T00:26:23;20.00;66.20
75719;DHT22;64340;48.534;-3.036;2023-07-13T00:28:49;20.00;66.20
75719;DHT22;64340;48.534;-3.036;2023-07-13T00:31:14;20.00;66.20
75719;DHT22;64340;48.534;-3.036;2023-07-13T00:33:40;19.90;66.30
75719;DHT22;64340;48.534;-3.036;2023-07-13T00:36:07;19.90;66.30
75719;DHT22;64340;48.534;-3.036;2023-07-13T00:38:33;20.00;66.40
75719;DHT22;64340;48.534;-3.036;2023-07-13T00:40:59;19.90;66.50
75719;DHT22;64340;48.534;-3.036;2023-07-13T00:43:24;19.90;66.50
75719;DHT22;64340;48.534;-3.036;2023-07-13T00:48:20;19.90;66.50
75719;DHT22;64340;48.534;-3.036;2023-07-13T00:50:46;19.90;66.50
75719;DHT22;64340;48.534;-3.036;2023-07-13T00:53:13;19.90;66.50
75719;DHT22;64340;48.534;-3.036;2023-07-13T00:55:39;19.90;66.50
75719;DHT22;64340;48.534;-3.036;2023-07-13T00:58:05;19.90;66.50
75719;DHT22;64340;48.534;-3.036;2023-07-13T01:00:33;19.90;66.60
75719;DHT22;64340;48.534;-3.036;2023-07-13T01:02:59;19.90;66.60
75719;DHT22;64340;48.534;-3.036;2023-07-13T01:05:27;19.90;66.60
75719;DHT22;64340;48.534;-3.036;2023-07-13T01:07:52;19.90;66.70
75719;DHT22;64340;48.534;-3.036;2023-07-13T01:10:30;19.90;66.70
75719;DHT22;64340;48.534;-3.036;2023-07-13T01:13:08;19.90;66.80
75719;DHT22;64340;48.534;-3.036;2023-07-13T01:17:59;19.90;66.80
75719;DHT22;64340;48.534;-3.036;2023-07-13T01:20:25;19.90;66.70
75719;DHT22;64340;48.534;-3.036;2023-07-13T01:22:51;19.90;66.80
75719;DHT22;64340;48.534;-3.036;2023-07-13T01:25:18;19.80;66.80
75719;DHT22;64340;48.534;-3.036;2023-07-13T01:27:44;19.80;66.70
75719;DHT22;64340;48.534;-3.036;2023-07-13T01:30:09;19.80;66.80
75719;DHT22;64340;48.534;-3.036;2023-07-13T01:32:35;19.80;66.80
75719;DHT22;64340;48.534;-3.036;2023-07-13T01:35:02;19.80;66.80
75719;DHT22;64340;48.534;-3.036;2023-07-13T01:37:27;19.80;66.90
75719;DHT22;64340;48.534;-3.036;2023-07-13T01:40:02;19.80;66.80
75719;DHT22;64340;48.534;-3.036;2023-07-13T01:42:28;19.80;66.90
75719;DHT22;64340;48.534;-3.036;2023-07-13T01:44:53;19.80;66.90
75719;DHT22;64340;48.534;-3.036;2023-07-13T01:47:19;19.70;66.90
75719;DHT22;64340;48.534;-3.036;2023-07-13T01:49:45;19.80;66.90
75719;DHT22;64340;48.534;-3.036;2023-07-13T01:52:12;19.80;66.90
75719;DHT22;64340;48.534;-3.036;2023-07-13T01:54:38;19.80;66.90
75719;DHT22;64340;48.534;-3.036;2023-07-13T01:57:03;19.70;66.90
75719;DHT22;64340;48.534;-3.036;2023-07-13T01:59:29;19.80;67.00
75719;DHT22;64340;48.534;-3.036;2023-07-13T02:01:55;19.70;67.00
75719;DHT22;64340;48.534;-3.036;2023-07-13T02:04:20;19.70;67.00
75719;DHT22;64340;48.534;-3.036;2023-07-13T02:06:46;19.70;67.00
75719;DHT22;64340;48.534;-3.036;2023-07-13T02:09:11;19.70;67.00
75719;DHT22;64340;48.534;-3.036;2023-07-13T02:11:37;19.70;67.00
75719;DHT22;64340;48.534;-3.036;2023-07-13T02:14:03;19.70;67.10
75719;DHT22;64340;48.534;-3.036;2023-07-13T02:16:29;19.70;66.90
75719;DHT22;64340;48.534;-3.036;2023-07-13T02:18:55;19.80;66.90
75719;DHT22;64340;48.534;-3.036;2023-07-13T02:21:21;19.70;67.10
75719;DHT22;64340;48.534;-3.036;2023-07-13T02:23:48;19.80;67.10
75719;DHT22;64340;48.534;-3.036;2023-07-13T02:26:14;19.80;67.00
75719;DHT22;64340;48.534;-3.036;2023-07-13T02:28:40;19.80;67.00
75719;DHT22;64340;48.534;-3.036;2023-07-13T02:31:10;19.70;67.10
75719;DHT22;64340;48.534;-3.036;2023-07-13T02:33:36;19.70;67.10
75719;DHT22;64340;48.534;-3.036;2023-07-13T02:36:02;19.80;67.30
75719;DHT22;64340;48.534;-3.036;2023-07-13T02:38:28;19.80;67.20
75719;DHT22;64340;48.534;-3.036;2023-07-13T02:40:54;19.70;67.40
75719;DHT22;64340;48.534;-3.036;2023-07-13T02:43:19;19.70;67.50
75719;DHT22;64340;48.534;-3.036;2023-07-13T02:45:45;19.70;67.50
75719;DHT22;64340;48.534;-3.036;2023-07-13T02:48:11;19.70;67.50
75719;DHT22;64340;48.534;-3.036;2023-07-13T02:50:36;19.70;67.50
75719;DHT22;64340;48.534;-3.036;2023-07-13T02:53:02;19.70;67.50
75719;DHT22;64340;48.534;-3.036;2023-07-13T02:55:28;19.70;67.50
75719;DHT22;64340;48.534;-3.036;2023-07-13T02:57:53;19.70;67.50
75719;DHT22;64340;48.534;-3.036;2023-07-13T03:00:19;19.70;67.50
75719;DHT22;64340;48.534;-3.036;2023-07-13T03:02:45;19.70;67.60
75719;DHT22;64340;48.534;-3.036;2023-07-13T03:05:11;19.70;67.60
75719;DHT22;64340;48.534;-3.036;2023-07-13T03:07:38;19.70;67.60
75719;DHT22;64340;48.534;-3.036;2023-07-13T03:10:04;19.70;67.60
75719;DHT22;64340;48.534;-3.036;2023-07-13T03:12:29;19.70;67.60
75719;DHT22;64340;48.534;-3.036;2023-07-13T03:14:55;19.70;67.60
75719;DHT22;64340;48.534;-3.036;2023-07-13T03:17:21;19.70;67.60
75719;DHT22;64340;48.534;-3.036;2023-07-13T03:19:46;19.70;67.60
75719;DHT22;64340;48.534;-3.036;2023-07-13T03:22:16;19.70;67.60
75719;DHT22;64340;48.534;-3.036;2023-07-13T03:24:41;19.70;67.60
75719;DHT22;64340;48.534;-3.036;2023-07-13T03:27:07;19.70;67.60
75719;DHT22;64340;48.534;-3.036;2023-07-13T03:29:32;19.70;67.60
75719;DHT22;64340;48.534;-3.036;2023-07-13T03:31:58;19.70;67.60
75719;DHT22;64340;48.534;-3.036;2023-07-13T03:34:23;19.70;67.50
75719;DHT22;64340;48.534;-3.036;2023-07-13T03:36:49;19.70;67.60
75719;DHT22;64340;48.534;-3.036;2023-07-13T03:39:15;19.60;67.70
75719;DHT22;64340;48.534;-3.036;2023-07-13T03:41:40;19.70;67.60
75719;DHT22;64340;48.534;-3.036;2023-07-13T03:44:06;19.60;67.60
75719;DHT22;64340;48.534;-3.036;2023-07-13T03:46:32;19.60;67.60
75719;DHT22;64340;48.534;-3.036;2023-07-13T03:48:58;19.60;67.60
75719;DHT22;64340;48.534;-3.036;2023-07-13T03:51:24;19.70;67.50
75719;DHT22;64340;48.534;-3.036;2023-07-13T03:53:50;19.60;67.50
75719;DHT22;64340;48.534;-3.036;2023-07-13T03:56:16;19.60;67.50
75719;DHT22;64340;48.534;-3.036;2023-07-13T03:58:44;19.60;67.60
75719;DHT22;64340;48.534;-3.036;2023-07-13T04:01:10;19.60;67.60
75719;DHT22;64340;48.534;-3.036;2023-07-13T04:03:36;19.60;67.60
75719;DHT22;64340;48.534;-3.036;2023-07-13T04:06:12;19.60;67.50
75719;DHT22;64340;48.534;-3.036;2023-07-13T04:08:40;19.70;67.60
75719;DHT22;64340;48.534;-3.036;2023-07-13T04:11:06;19.70;67.40
75719;DHT22;64340;48.534;-3.036;2023-07-13T04:13:32;19.70;67.40
75719;DHT22;64340;48.534;-3.036;2023-07-13T04:15:58;19.70;67.50
75719;DHT22;64340;48.534;-3.036;2023-07-13T04:18:23;19.60;67.50
75719;DHT22;64340;48.534;-3.036;2023-07-13T04:20:49;19.60;67.60
75719;DHT22;64340;48.534;-3.036;2023-07-13T04:23:16;19.60;67.60
75719;DHT22;64340;48.534;-3.036;2023-07-13T04:25:48;19.60;67.60
75719;DHT22;64340;48.534;-3.036;2023-07-13T04:28:15;19.60;67.70
75719;DHT22;64340;48.534;-3.036;2023-07-13T04:30:41;19.60;67.70
75719;DHT22;64340;48.534;-3.036;2023-07-13T04:33:06;19.60;67.70
75719;DHT22;64340;48.534;-3.036;2023-07-13T04:35:34;19.60;67.60
75719;DHT22;64340;48.534;-3.036;2023-07-13T04:38:00;19.60;67.70
75719;DHT22;64340;48.534;-3.036;2023-07-13T04:40:26;19.60;67.50
75719;DHT22;64340;48.534;-3.036;2023-07-13T04:42:52;19.60;67.60
75719;DHT22;64340;48.534;-3.036;2023-07-13T04:45:18;19.50;68.00
75719;DHT22;64340;48.534;-3.036;2023-07-13T04:47:43;19.50;67.80
75719;DHT22;64340;48.534;-3.036;2023-07-13T04:50:09;19.60;67.70
75719;DHT22;64340;48.534;-3.036;2023-07-13T04:52:36;19.70;67.70
75719;DHT22;64340;48.534;-3.036;2023-07-13T04:55:02;19.70;67.80
75719;DHT22;64340;48.534;-3.036;2023-07-13T04:57:27;19.70;67.60
75719;DHT22;64340;48.534;-3.036;2023-07-13T04:59:53;19.60;67.90
75719;DHT22;64340;48.534;-3.036;2023-07-13T05:02:20;19.60;68.00
75719;DHT22;64340;48.534;-3.036;2023-07-13T05:04:46;19.50;68.10
75719;DHT22;64340;48.534;-3.036;2023-07-13T05:07:12;19.60;68.20
75719;DHT22;64340;48.534;-3.036;2023-07-13T05:09:38;19.70;68.60
75719;DHT22;64340;48.534;-3.036;2023-07-13T05:12:06;19.70;69.20
75719;DHT22;64340;48.534;-3.036;2023-07-13T05:14:31;19.70;69.70
75719;DHT22;64340;48.534;-3.036;2023-07-13T05:16:57;19.70;70.80
75719;DHT22;64340;48.534;-3.036;2023-07-13T05:19:23;19.70;71.20
75719;DHT22;64340;48.534;-3.036;2023-07-13T05:21:48;19.70;71.00
75719;DHT22;64340;48.534;-3.036;2023-07-13T05:24:14;19.70;70.90
75719;DHT22;64340;48.534;-3.036;2023-07-13T05:26:40;19.70;70.80
75719;DHT22;64340;48.534;-3.036;2023-07-13T05:29:05;19.70;70.70
75719;DHT22;64340;48.534;-3.036;2023-07-13T05:31:31;19.70;70.80
75719;DHT22;64340;48.534;-3.036;2023-07-13T05:33:56;19.70;70.70
75719;DHT22;64340;48.534;-3.036;2023-07-13T05:36:22;19.70;70.70
75719;DHT22;64340;48.534;-3.036;2023-07-13T05:38:47;19.70;70.70
75719;DHT22;64340;48.534;-3.036;2023-07-13T05:41:13;19.70;70.50
75719;DHT22;64340;48.534;-3.036;2023-07-13T05:43:38;19.70;70.60
75719;DHT22;64340;48.534;-3.036;2023-07-13T05:46:04;19.70;70.50
75719;DHT22;64340;48.534;-3.036;2023-07-13T05:48:30;19.70;70.50
75719;DHT22;64340;48.534;-3.036;2023-07-13T05:50:55;19.70;70.40
75719;DHT22;64340;48.534;-3.036;2023-07-13T05:53:21;19.70;70.40
75719;DHT22;64340;48.534;-3.036;2023-07-13T05:55:47;19.70;70.30
75719;DHT22;64340;48.534;-3.036;2023-07-13T05:58:13;19.70;70.30
75719;DHT22;64340;48.534;-3.036;2023-07-13T06:00:39;19.70;70.30
75719;DHT22;64340;48.534;-3.036;2023-07-13T06:03:05;19.70;70.30
75719;DHT22;64340;48.534;-3.036;2023-07-13T06:05:32;19.70;70.10
75719;DHT22;64340;48.534;-3.036;2023-07-13T06:07:59;19.70;70.10
75719;DHT22;64340;48.534;-3.036;2023-07-13T06:10:24;19.70;70.10
75719;DHT22;64340;48.534;-3.036;2023-07-13T06:12:50;19.70;70.10
75719;DHT22;64340;48.534;-3.036;2023-07-13T06:15:16;19.70;70.10
75719;DHT22;64340;48.534;-3.036;2023-07-13T06:17:42;19.70;70.10
75719;DHT22;64340;48.534;-3.036;2023-07-13T06:20:07;19.70;70.00
75719;DHT22;64340;48.534;-3.036;2023-07-13T06:22:33;19.70;70.00
75719;DHT22;64340;48.534;-3.036;2023-07-13T06:24:58;19.70;69.90
75719;DHT22;64340;48.534;-3.036;2023-07-13T06:27:24;19.70;69.80
75719;DHT22;64340;48.534;-3.036;2023-07-13T06:29:50;19.70;69.80
75719;DHT22;64340;48.534;-3.036;2023-07-13T06:32:15;19.70;69.80
75719;DHT22;64340;48.534;-3.036;2023-07-13T06:34:41;19.70;69.80
75719;DHT22;64340;48.534;-3.036;2023-07-13T06:37:06;19.70;69.80
75719;DHT22;64340;48.534;-3.036;2023-07-13T06:39:32;19.70;69.70
75719;DHT22;64340;48.534;-3.036;2023-07-13T06:41:57;19.70;69.70
75719;DHT22;64340;48.534;-3.036;2023-07-13T06:44:23;19.70;69.60
75719;DHT22;64340;48.534;-3.036;2023-07-13T06:46:49;19.70;69.60
75719;DHT22;64340;48.534;-3.036;2023-07-13T06:49:14;19.70;69.60
75719;DHT22;64340;48.534;-3.036;2023-07-13T06:51:40;19.70;69.60
75719;DHT22;64340;48.534;-3.036;2023-07-13T06:54:05;19.70;69.50
75719;DHT22;64340;48.534;-3.036;2023-07-13T06:56:31;19.70;69.50
75719;DHT22;64340;48.534;-3.036;2023-07-13T06:58:56;19.70;69.40
75719;DHT22;64340;48.534;-3.036;2023-07-13T07:01:22;19.70;69.40
75719;DHT22;64340;48.534;-3.036;2023-07-13T07:03:47;19.70;69.30
75719;DHT22;64340;48.534;-3.036;2023-07-13T07:08:40;19.70;69.30
75719;DHT22;64340;48.534;-3.036;2023-07-13T07:13:31;19.70;69.30
75719;DHT22;64340;48.534;-3.036;2023-07-13T07:15:57;19.80;69.20
75719;DHT22;64340;48.534;-3.036;2023-07-13T07:18:25;19.80;69.20
75719;DHT22;64340;48.534;-3.036;2023-07-13T07:20:50;19.80;69.10
75719;DHT22;64340;48.534;-3.036;2023-07-13T07:23:16;19.90;69.10
75719;DHT22;64340;48.534;-3.036;2023-07-13T07:25:43;19.80;69.10
75719;DHT22;64340;48.534;-3.036;2023-07-13T07:28:08;19.90;69.00
75719;DHT22;64340;48.534;-3.036;2023-07-13T07:30:34;19.90;69.00
75719;DHT22;64340;48.534;-3.036;2023-07-13T07:33:00;19.90;68.80
75719;DHT22;64340;48.534;-3.036;2023-07-13T07:35:26;19.90;68.80
75719;DHT22;64340;48.534;-3.036;2023-07-13T07:37:52;19.90;68.70
75719;DHT22;64340;48.534;-3.036;2023-07-13T07:40:18;19.90;68.80
75719;DHT22;64340;48.534;-3.036;2023-07-13T07:42:44;19.90;68.70
75719;DHT22;64340;48.534;-3.036;2023-07-13T07:45:09;20.00;68.70
75719;DHT22;64340;48.534;-3.036;2023-07-13T07:47:37;19.90;68.70
75719;DHT22;64340;48.534;-3.036;2023-07-13T07:50:02;19.90;68.70
75719;DHT22;64340;48.534;-3.036;2023-07-13T07:52:29;19.90;68.70
75719;DHT22;64340;48.534;-3.036;2023-07-13T07:54:54;19.90;68.70
75719;DHT22;64340;48.534;-3.036;2023-07-13T07:57:20;19.90;68.70
75719;DHT22;64340;48.534;-3.036;2023-07-13T07:59:45;19.90;68.70
75719;DHT22;64340;48.534;-3.036;2023-07-13T08:02:11;19.90;68.80
75719;DHT22;64340;48.534;-3.036;2023-07-13T08:04:37;19.90;68.70
75719;DHT22;64340;48.534;-3.036;2023-07-13T08:07:03;19.90;68.70
75719;DHT22;64340;48.534;-3.036;2023-07-13T08:09:28;19.90;68.80
75719;DHT22;64340;48.534;-3.036;2023-07-13T08:11:54;19.90;68.80
75719;DHT22;64340;48.534;-3.036;2023-07-13T08:14:20;19.90;68.80
75719;DHT22;64340;48.534;-3.036;2023-07-13T08:16:46;19.90;68.70
75719;DHT22;64340;48.534;-3.036;2023-07-13T08:19:11;19.90;68.70
75719;DHT22;64340;48.534;-3.036;2023-07-13T08:21:37;19.90;68.80
75719;DHT22;64340;48.534;-3.036;2023-07-13T08:24:03;19.90;68.70
75719;DHT22;64340;48.534;-3.036;2023-07-13T08:26:29;19.90;68.70
75719;DHT22;64340;48.534;-3.036;2023-07-13T08:28:54;19.90;68.70
75719;DHT22;64340;48.534;-3.036;2023-07-13T08:31:20;19.90;68.80
75719;DHT22;64340;48.534;-3.036;2023-07-13T08:33:45;19.90;68.90
75719;DHT22;64340;48.534;-3.036;2023-07-13T08:36:11;19.90;69.00
75719;DHT22;64340;48.534;-3.036;2023-07-13T08:38:37;19.90;69.00
75719;DHT22;64340;48.534;-3.036;2023-07-13T08:41:09;19.80;69.10
75719;DHT22;64340;48.534;-3.036;2023-07-13T08:43:36;19.90;69.00
75719;DHT22;64340;48.534;-3.036;2023-07-13T08:46:08;19.90;69.00
75719;DHT22;64340;48.534;-3.036;2023-07-13T08:48:36;19.90;69.00
75719;DHT22;64340;48.534;-3.036;2023-07-13T08:53:51;19.90;69.00
75719;DHT22;64340;48.534;-3.036;2023-07-13T08:56:27;19.90;69.00
75719;DHT22;64340;48.534;-3.036;2023-07-13T08:58:55;19.90;69.10
75719;DHT22;64340;48.534;-3.036;2023-07-13T09:01:44;19.90;69.10
75719;DHT22;64340;48.534;-3.036;2023-07-13T09:04:19;19.90;69.20
75719;DHT22;64340;48.534;-3.036;2023-07-13T09:16:39;20.00;69.30
75719;DHT22;64340;48.534;-3.036;2023-07-13T09:19:06;20.00;69.20
75719;DHT22;64340;48.534;-3.036;2023-07-13T09:21:36;20.10;69.20
75719;DHT22;64340;48.534;-3.036;2023-07-13T09:26:46;20.10;69.10
75719;DHT22;64340;48.534;-3.036;2023-07-13T09:29:24;20.10;69.10
75719;DHT22;64340;48.534;-3.036;2023-07-13T09:31:53;20.10;69.10
75719;DHT22;64340;48.534;-3.036;2023-07-13T09:34:19;20.20;69.20
75719;DHT22;64340;48.534;-3.036;2023-07-13T09:36:45;20.20;69.20
75719;DHT22;64340;48.534;-3.036;2023-07-13T09:39:13;20.20;69.10
75719;DHT22;64340;48.534;-3.036;2023-07-13T09:44:27;20.30;69.10
75719;DHT22;64340;48.534;-3.036;2023-07-13T09:46:56;20.30;69.20
75719;DHT22;64340;48.534;-3.036;2023-07-13T09:49:25;20.30;69.00
75719;DHT22;64340;48.534;-3.036;2023-07-13T09:51:57;20.30;69.00
75719;DHT22;64340;48.534;-3.036;2023-07-13T09:54:24;20.30;69.00
75719;DHT22;64340;48.534;-3.036;2023-07-13T09:56:56;20.30;69.20
75719;DHT22;64340;48.534;-3.036;2023-07-13T09:59:22;20.30;69.00
75719;DHT22;64340;48.534;-3.036;2023-07-13T10:01:49;20.20;69.00
75719;DHT22;64340;48.534;-3.036;2023-07-13T10:04:18;20.20;69.10
75719;DHT22;64340;48.534;-3.036;2023-07-13T10:06:44;20.10;69.20
75719;DHT22;64340;48.534;-3.036;2023-07-13T10:09:14;20.10;69.20
75719;DHT22;64340;48.534;-3.036;2023-07-13T10:11:41;20.10;69.10
75719;DHT22;64340;48.534;-3.036;2023-07-13T10:14:11;20.10;69.20
75719;DHT22;64340;48.534;-3.036;2023-07-13T10:16:38;20.10;69.20
75719;DHT22;64340;48.534;-3.036;2023-07-13T10:19:10;20.20;69.10
75719;DHT22;64340;48.534;-3.036;2023-07-13T10:24:36;20.20;69.10
75719;DHT22;64340;48.534;-3.036;2023-07-13T10:27:22;20.10;69.10
75719;DHT22;64340;48.534;-3.036;2023-07-13T10:30:01;20.20;69.00
75719;DHT22;64340;48.534;-3.036;2023-07-13T10:32:27;20.20;69.00
75719;DHT22;64340;48.534;-3.036;2023-07-13T10:34:52;20.20;69.10
75719;DHT22;64340;48.534;-3.036;2023-07-13T10:37:22;20.30;69.10
75719;DHT22;64340;48.534;-3.036;2023-07-13T10:39:48;20.30;69.20
75719;DHT22;64340;48.534;-3.036;2023-07-13T10:42:25;20.30;69.10
75719;DHT22;64340;48.534;-3.036;2023-07-13T10:44:52;20.30;69.10
75719;DHT22;64340;48.534;-3.036;2023-07-13T10:47:18;20.30;69.10
75719;DHT22;64340;48.534;-3.036;2023-07-13T10:49:43;20.30;69.00
75719;DHT22;64340;48.534;-3.036;2023-07-13T10:54:54;20.30;69.10
75719;DHT22;64340;48.534;-3.036;2023-07-13T10:57:20;20.30;69.10
75719;DHT22;64340;48.534;-3.036;2023-07-13T10:59:47;20.30;69.00
75719;DHT22;64340;48.534;-3.036;2023-07-13T11:02:31;20.30;69.00
75719;DHT22;64340;48.534;-3.036;2023-07-13T11:04:56;20.30;68.90
75719;DHT22;64340;48.534;-3.036;2023-07-13T11:09:52;20.30;69.00
75719;DHT22;64340;48.534;-3.036;2023-07-13T11:19:53;20.40;68.80
75719;DHT22;64340;48.534;-3.036;2023-07-13T11:22:26;20.40;68.90
75719;DHT22;64340;48.534;-3.036;2023-07-13T11:25:25;20.40;68.80
75719;DHT22;64340;48.534;-3.036;2023-07-13T11:28:02;20.50;68.90
75719;DHT22;64340;48.534;-3.036;2023-07-13T11:35:36;20.50;68.60
75719;DHT22;64340;48.534;-3.036;2023-07-13T11:38:08;20.50;68.50
75719;DHT22;64340;48.534;-3.036;2023-07-13T11:40:35;20.50;68.50
75719;DHT22;64340;48.534;-3.036;2023-07-13T11:43:01;20.50;68.50
75719;DHT22;64340;48.534;-3.036;2023-07-13T11:45:27;20.50;68.30
75719;DHT22;64340;48.534;-3.036;2023-07-13T11:47:53;20.50;68.30
75719;DHT22;64340;48.534;-3.036;2023-07-13T11:50:23;20.50;68.30
75719;DHT22;64340;48.534;-3.036;2023-07-13T11:52:50;20.50;68.20
75719;DHT22;64340;48.534;-3.036;2023-07-13T11:55:17;20.50;68.30
75719;DHT22;64340;48.534;-3.036;2023-07-13T11:57:45;20.50;68.20
75719;DHT22;64340;48.534;-3.036;2023-07-13T12:00:13;20.50;68.00
75719;DHT22;64340;48.534;-3.036;2023-07-13T12:02:41;20.50;67.90
75719;DHT22;64340;48.534;-3.036;2023-07-13T12:05:10;20.60;67.80
75719;DHT22;64340;48.534;-3.036;2023-07-13T12:07:38;20.60;67.80
75719;DHT22;64340;48.534;-3.036;2023-07-13T12:12:51;20.60;67.80
75719;DHT22;64340;48.534;-3.036;2023-07-13T12:15:17;20.60;67.70
75719;DHT22;64340;48.534;-3.036;2023-07-13T12:17:42;20.70;67.70
75719;DHT22;64340;48.534;-3.036;2023-07-13T12:20:23;20.60;67.60
75719;DHT22;64340;48.534;-3.036;2023-07-13T12:22:49;20.70;67.60
75719;DHT22;64340;48.534;-3.036;2023-07-13T12:25:15;20.70;67.50
75719;DHT22;64340;48.534;-3.036;2023-07-13T12:27:43;20.70;67.50
75719;DHT22;64340;48.534;-3.036;2023-07-13T12:30:30;20.70;67.40
75719;DHT22;64340;48.534;-3.036;2023-07-13T12:32:59;20.70;67.40
75719;DHT22;64340;48.534;-3.036;2023-07-13T12:35:25;20.70;67.40
75719;DHT22;64340;48.534;-3.036;2023-07-13T12:37:51;20.70;67.40
75719;DHT22;64340;48.534;-3.036;2023-07-13T12:40:19;20.70;67.30
75719;DHT22;64340;48.534;-3.036;2023-07-13T12:42:48;20.70;67.30
75719;DHT22;64340;48.534;-3.036;2023-07-13T12:45:21;20.70;67.00
75719;DHT22;64340;48.534;-3.036;2023-07-13T12:47:48;20.70;67.10
75719;DHT22;64340;48.534;-3.036;2023-07-13T12:50:18;20.70;67.10
75719;DHT22;64340;48.534;-3.036;2023-07-13T12:52:44;20.60;67.10
75719;DHT22;64340;48.534;-3.036;2023-07-13T12:55:16;20.70;67.20
75719;DHT22;64340;48.534;-3.036;2023-07-13T12:57:56;20.70;67.20
75719;DHT22;64340;48.534;-3.036;2023-07-13T13:00:30;20.70;67.10
75719;DHT22;64340;48.534;-3.036;2023-07-13T13:02:58;20.70;67.00
75719;DHT22;64340;48.534;-3.036;2023-07-13T13:05:29;20.80;66.80
75719;DHT22;64340;48.534;-3.036;2023-07-13T13:07:55;20.90;66.40
75719;DHT22;64340;48.534;-3.036;2023-07-13T13:10:20;21.00;66.20
75719;DHT22;64340;48.534;-3.036;2023-07-13T13:12:46;21.00;66.20
75719;DHT22;64340;48.534;-3.036;2023-07-13T13:15:13;21.00;66.20
75719;DHT22;64340;48.534;-3.036;2023-07-13T13:17:39;21.00;66.30
75719;DHT22;64340;48.534;-3.036;2023-07-13T13:20:26;21.00;66.40
75719;DHT22;64340;48.534;-3.036;2023-07-13T13:22:54;21.00;66.40
75719;DHT22;64340;48.534;-3.036;2023-07-13T13:25:25;21.00;66.30
75719;DHT22;64340;48.534;-3.036;2023-07-13T13:27:50;21.00;66.50
75719;DHT22;64340;48.534;-3.036;2023-07-13T13:30:24;21.00;66.60
75719;DHT22;64340;48.534;-3.036;2023-07-13T13:32:51;21.00;66.60
75719;DHT22;64340;48.534;-3.036;2023-07-13T13:35:20;20.90;66.60
75719;DHT22;64340;48.534;-3.036;2023-07-13T13:37:52;20.90;66.60
75719;DHT22;64340;48.534;-3.036;2023-07-13T13:40:19;20.90;66.60
75719;DHT22;64340;48.534;-3.036;2023-07-13T13:42:48;20.90;66.60
75719;DHT22;64340;48.534;-3.036;2023-07-13T13:45:14;20.90;66.80
75719;DHT22;64340;48.534;-3.036;2023-07-13T13:47:43;20.90;66.90
75719;DHT22;64340;48.534;-3.036;2023-07-13T13:50:11;20.80;66.90
75719;DHT22;64340;48.534;-3.036;2023-07-13T13:52:43;20.80;67.10
75719;DHT22;64340;48.534;-3.036;2023-07-13T13:58:10;20.80;67.10
75719;DHT22;64340;48.534;-3.036;2023-07-13T14:00:41;20.80;67.10
75719;DHT22;64340;48.534;-3.036;2023-07-13T14:03:15;20.80;67.10
75719;DHT22;64340;48.534;-3.036;2023-07-13T14:05:47;20.80;67.00
75719;DHT22;64340;48.534;-3.036;2023-07-13T14:08:25;20.70;67.20
75719;DHT22;64340;48.534;-3.036;2023-07-13T14:10:52;20.70;67.10
75719;DHT22;64340;48.534;-3.036;2023-07-13T14:13:24;20.70;67.10
75719;DHT22;64340;48.534;-3.036;2023-07-13T14:16:01;20.80;67.10
75719;DHT22;64340;48.534;-3.036;2023-07-13T14:18:28;20.80;67.10
75719;DHT22;64340;48.534;-3.036;2023-07-13T14:20:55;20.80;67.10
75719;DHT22;64340;48.534;-3.036;2023-07-13T14:23:21;20.80;67.10
75719;DHT22;64340;48.534;-3.036;2023-07-13T14:25:50;20.80;67.00
75719;DHT22;64340;48.534;-3.036;2023-07-13T14:30:48;20.80;67.00
75719;DHT22;64340;48.534;-3.036;2023-07-13T14:33:13;20.90;67.00
75719;DHT22;64340;48.534;-3.036;2023-07-13T14:35:39;20.90;66.90
75719;DHT22;64340;48.534;-3.036;2023-07-13T14:38:13;20.90;66.90
75719;DHT22;64340;48.534;-3.036;2023-07-13T14:40:42;20.90;66.90
75719;DHT22;64340;48.534;-3.036;2023-07-13T14:43:11;21.00;66.80
75719;DHT22;64340;48.534;-3.036;2023-07-13T14:45:41;21.00;67.10
75719;DHT22;64340;48.534;-3.036;2023-07-13T14:48:26;21.00;66.50
75719;DHT22;64340;48.534;-3.036;2023-07-13T14:50:55;20.90;66.80
75719;DHT22;64340;48.534;-3.036;2023-07-13T14:53:22;20.90;67.10
75719;DHT22;64340;48.534;-3.036;2023-07-13T14:55:48;20.90;67.10
75719;DHT22;64340;48.534;-3.036;2023-07-13T14:58:15;20.90;66.90
75719;DHT22;64340;48.534;-3.036;2023-07-13T15:00:41;20.90;67.00
75719;DHT22;64340;48.534;-3.036;2023-07-13T15:03:13;20.90;67.10
75719;DHT22;64340;48.534;-3.036;2023-07-13T15:05:41;21.00;66.80
75719;DHT22;64340;48.534;-3.036;2023-07-13T15:08:07;20.90;67.00
75719;DHT22;64340;48.534;-3.036;2023-07-13T15:10:34;20.90;66.60
75719;DHT22;64340;48.534;-3.036;2023-07-13T15:13:12;20.90;66.90
75719;DHT22;64340;48.534;-3.036;2023-07-13T15:15:40;20.90;66.40
75719;DHT22;64340;48.534;-3.036;2023-07-13T15:18:08;20.90;66.50
75719;DHT22;64340;48.534;-3.036;2023-07-13T15:20:34;20.90;66.40
75719;DHT22;64340;48.534;-3.036;2023-07-13T15:23:01;20.90;66.50
75719;DHT22;64340;48.534;-3.036;2023-07-13T15:25:29;20.90;66.50
75719;DHT22;64340;48.534;-3.036;2023-07-13T15:28:01;20.90;66.50
75719;DHT22;64340;48.534;-3.036;2023-07-13T15:30:49;20.90;66.50
75719;DHT22;64340;48.534;-3.036;2023-07-13T15:33:26;20.90;66.90
75719;DHT22;64340;48.534;-3.036;2023-07-13T15:35:52;20.90;66.90
75719;DHT22;64340;48.534;-3.036;2023-07-13T15:38:20;21.00;66.80
75719;DHT22;64340;48.534;-3.036;2023-07-13T15:40:46;21.00;66.80
75719;DHT22;64340;48.534;-3.036;2023-07-13T15:43:13;21.10;66.20
75719;DHT22;64340;48.534;-3.036;2023-07-13T15:45:39;21.00;66.50
75719;DHT22;64340;48.534;-3.036;2023-07-13T15:48:18;21.00;66.60
75719;DHT22;64340;48.534;-3.036;2023-07-13T15:50:46;21.00;66.30
75719;DHT22;64340;48.534;-3.036;2023-07-13T15:53:27;21.00;66.50
75719;DHT22;64340;48.534;-3.036;2023-07-13T15:55:54;21.00;66.50
75719;DHT22;64340;48.534;-3.036;2023-07-13T15:58:20;20.90;66.60
75719;DHT22;64340;48.534;-3.036;2023-07-13T16:00:47;20.90;67.00
75719;DHT22;64340;48.534;-3.036;2023-07-13T16:03:19;20.90;67.20
75719;DHT22;64340;48.534;-3.036;2023-07-13T16:05:45;21.00;67.00
75719;DHT22;64340;48.534;-3.036;2023-07-13T16:08:18;21.00;65.60
75719;DHT22;64340;48.534;-3.036;2023-07-13T16:10:46;20.90;65.00
75719;DHT22;64340;48.534;-3.036;2023-07-13T16:13:15;20.90;65.20
75719;DHT22;64340;48.534;-3.036;2023-07-13T16:15:41;20.90;65.20